Clearwater — WDG2196 — position and weather

sailwx.info

Track history (hours):
 
Tides and Currents Weather Stations Pressure Air Temp Water Temp Dewpoint Dewpoint Depression Visibility Wind Speed Wind Dir Waves Ship Positions

Clearwater

Owner: Shaver Transportation Company, Portland, OR. More information available from US FCC via Universal Licensing System and Coast Guard Vessel Documentation Center.

Last reported at 2017-Dec-13 07:20 UTC. Time now 2017-Dec-17 02:34 UTC.
Position N 45°37' W 122°01'.

Length 29 m; draft 3.2 m.

Type: Tug. MMSI: 367513140.

Date/timePositionNaut miles runAvg speedWind from/ knotsBaromVisibWave heightAir tempDewpointWater temp
2017-Dec-13 07:20N 45°37' W 122°01'1 3.9
2017-Dec-13 06:57N 45°36' W 122°03'3 6.8
2017-Dec-13 06:27N 45°35' W 122°07'3 6.4
2017-Dec-13 06:01N 45°34' W 122°11'3 6.1
2017-Dec-13 05:30N 45°33' W 122°15'3 6.1
2017-Dec-13 05:00N 45°33' W 122°19'3 6.1
2017-Dec-13 04:30N 45°35' W 122°23'3 6.2
2017-Dec-13 04:00N 45°34' W 122°28'4 7.0
2017-Dec-13 03:30N 45°36' W 122°32'4 7.1
2017-Dec-13 03:00N 45°36' W 122°37'4 7.4
2017-Dec-13 02:30N 45°38' W 122°42'2 2.6
2017-Dec-13 01:39N 45°39' W 122°45'2 8.8
2017-Dec-13 01:29N 45°40' W 122°46'4 8.4
2017-Dec-13 01:00N 45°44' W 122°46'4 8.4
2017-Dec-13 00:31N 45°48' W 122°47'4 8.0
2017-Dec-13 00:00N 45°52' W 122°47'4 7.4
2017-Dec-12 23:30N 45°56' W 122°48'1 1.2
2017-Dec-12 23:01N 45°55' W 122°48'5 9.4
2017-Dec-12 22:30N 45°50' W 122°47'4 8.8
2017-Dec-12 22:01N 45°46' W 122°46'4 8.9
2017-Dec-12 21:31N 45°42' W 122°46'3 6.4
2017-Dec-12 21:01N 45°39' W 122°45'2 3.4
2017-Dec-12 20:30N 45°38' W 122°47'4 7.1
2017-Dec-12 20:01N 45°35' W 122°45'2 3.1
2017-Dec-12 19:31N 45°34' W 122°44'0 0.0
2017-Dec-12 19:01N 45°34' W 122°44'0 0.0
2017-Dec-12 18:31N 45°34' W 122°44'0 0.0
2017-Dec-12 18:01N 45°34' W 122°44'0 0.0
2017-Dec-12 17:31N 45°34' W 122°44'0 0.0
2017-Dec-12 17:01N 45°34' W 122°44'0 0.1
2017-Dec-12 16:30N 45°34' W 122°44'0 0.0
2017-Dec-12 16:01N 45°34' W 122°44'0 0.1
2017-Dec-12 15:31N 45°34' W 122°44'2 4.5
2017-Dec-12 15:00N 45°35' W 122°46'3 6.7
2017-Dec-12 14:31N 45°39' W 122°47'1 2.0
2017-Dec-12 14:01N 45°39' W 122°45'0 0.0
2017-Dec-12 13:31N 45°39' W 122°45'0 0.0
2017-Dec-12 13:01N 45°39' W 122°45'0 0.0
2017-Dec-12 12:31N 45°39' W 122°45'0 0.0
2017-Dec-12 12:01N 45°39' W 122°45'2 3.2
2017-Dec-12 11:30N 45°38' W 122°47'5 9.0
2017-Dec-12 11:01N 45°34' W 122°44'2 5.0
2017-Dec-12 10:30N 45°36' W 122°47'3 6.8
2017-Dec-12 10:00N 45°39' W 122°46'1 1.2
2017-Dec-12 09:30N 45°39' W 122°45'0 0.0
2017-Dec-12 09:00N 45°39' W 122°45'0 0.0
2017-Dec-12 08:30N 45°39' W 122°45'0 0.0
2017-Dec-12 08:00N 45°39' W 122°45'0 0.0
2017-Dec-12 07:30N 45°39' W 122°45'0 0.0
2017-Dec-12 07:00N 45°39' W 122°45'0 0.0
2017-Dec-12 06:30N 45°39' W 122°45'0 0.0
2017-Dec-12 05:57N 45°39' W 122°45'0 0.0
2017-Dec-12 05:30N 45°39' W 122°45'0 0.0
2017-Dec-12 05:00N 45°39' W 122°45'1 2.1
2017-Dec-12 04:30N 45°38' W 122°44'1 2.9
2017-Dec-12 04:00N 45°38' W 122°42'0 0.0
2017-Dec-12 03:30N 45°38' W 122°42'0 0.0
2017-Dec-12 03:00N 45°38' W 122°42'1 2.3
2017-Dec-12 02:31N 45°38' W 122°43'0 0.9
2017-Dec-12 02:00N 45°38' W 122°44'1 1.9
2017-Dec-12 01:29N 45°39' W 122°45'0 0.0
2017-Dec-12 01:01N 45°39' W 122°45'0 0.0
2017-Dec-12 00:30N 45°39' W 122°45'0 0.0
2017-Dec-12 00:00N 45°39' W 122°45'0 0.0
2017-Dec-11 23:31N 45°39' W 122°45'0 0.0
2017-Dec-11 23:01N 45°39' W 122°45'0 0.0
2017-Dec-11 22:31N 45°39' W 122°45'0 0.0
2017-Dec-11 22:01N 45°39' W 122°45'0 0.0
2017-Dec-11 21:30N 45°39' W 122°45'0 0.0
2017-Dec-11 21:01N 45°39' W 122°45'0 0.0
2017-Dec-11 20:30N 45°39' W 122°45'0 0.0
2017-Dec-11 20:00N 45°39' W 122°45'0 0.0
2017-Dec-11 19:31N 45°39' W 122°45'0 0.0
2017-Dec-11 19:01N 45°39' W 122°45'0 0.5
2017-Dec-11 18:30N 45°39' W 122°45'0 0.0
2017-Dec-11 18:01N 45°39' W 122°45'0 0.0
2017-Dec-11 17:30N 45°39' W 122°45'0 0.0
2017-Dec-11 17:00N 45°39' W 122°45'2 3.5
2017-Dec-11 16:30N 45°38' W 122°42'0 0.0
2017-Dec-11 16:01N 45°38' W 122°42'0 0.0
2017-Dec-11 15:30N 45°38' W 122°42'0 0.1
2017-Dec-11 15:01N 45°38' W 122°42'0 0.4
2017-Dec-11 14:31N 45°38' W 122°43'1 1.9
2017-Dec-11 14:00N 45°38' W 122°44'1 2.4
2017-Dec-11 13:30N 45°38' W 122°42'2 4.0
2017-Dec-11 13:00N 45°39' W 122°45'1 1.4
2017-Dec-11 12:30N 45°39' W 122°46'4 7.2
2017-Dec-11 12:00N 45°35' W 122°46'3 5.2
2017-Dec-11 11:30N 45°34' W 122°44'0 0.7
2017-Dec-11 11:00N 45°34' W 122°44'4 7.5
2017-Dec-11 10:30N 45°37' W 122°47'3 6.3
2017-Dec-11 10:01N 45°40' W 122°46'0 0.1
2017-Dec-11 09:30N 45°40' W 122°46'0 0.0
2017-Dec-11 09:01N 45°40' W 122°46'0 0.0
2017-Dec-11 08:28N 45°40' W 122°46'0 0.0
2017-Dec-11 08:00N 45°40' W 122°46'0 0.0
2017-Dec-11 07:31N 45°40' W 122°46'0 0.0
2017-Dec-11 07:00N 45°40' W 122°46'0 0.0
2017-Dec-11 06:30N 45°40' W 122°46'0 0.0
2017-Dec-11 06:00N 45°40' W 122°46'2 3.1
2017-Dec-11 05:31N 45°39' W 122°45'0 0.3
2017-Dec-11 05:00N 45°39' W 122°45'3 5.5
2017-Dec-11 04:31N 45°38' W 122°41'3 6.7
2017-Dec-11 04:01N 45°36' W 122°37'3 7.0
2017-Dec-11 03:30N 45°35' W 122°32'4 7.1
2017-Dec-11 03:01N 45°34' W 122°27'3 6.9
2017-Dec-11 02:30N 45°34' W 122°22'3 6.7
2017-Dec-11 02:01N 45°33' W 122°18'3 6.9
2017-Dec-11 01:31N 45°33' W 122°13'3 6.6
2017-Dec-11 01:01N 45°35' W 122°09'3 6.4
2017-Dec-11 00:28N 45°36' W 122°04'  
2017-Dec-04 10:30N 45°39' W 122°45'0 0.0
2017-Dec-04 10:00N 45°39' W 122°45'0 0.0
2017-Dec-04 09:31N 45°39' W 122°45'0 0.0
2017-Dec-04 09:00N 45°39' W 122°45'0 0.0
2017-Dec-04 08:30N 45°39' W 122°45'0 0.0
2017-Dec-04 08:00N 45°39' W 122°45'0 0.0
2017-Dec-04 07:30N 45°39' W 122°45'0 0.0
2017-Dec-04 07:00N 45°39' W 122°45'0 0.0
2017-Dec-04 06:30N 45°39' W 122°45'0 0.0
2017-Dec-04 06:00N 45°39' W 122°45'0 0.0
2017-Dec-04 05:30N 45°39' W 122°45'0 0.0
2017-Dec-04 05:00N 45°39' W 122°45'1 2.0
2017-Dec-04 04:30N 45°38' W 122°43'1 1.6
2017-Dec-04 04:01N 45°38' W 122°42'3 5.2
2017-Dec-04 03:30N 45°39' W 122°46'4 8.2
2017-Dec-04 03:01N 45°35' W 122°46'4 7.8
2017-Dec-04 02:30N 45°33' W 122°42'1 1.8
2017-Dec-04 02:00N 45°32' W 122°41'3 5.0
2017-Dec-04 01:30N 45°34' W 122°43'3 5.8
2017-Dec-04 01:01N 45°36' W 122°46'3 6.4
2017-Dec-04 00:31N 45°39' W 122°46'1 2.0
2017-Dec-04 00:00N 45°39' W 122°45'0 0.5
2017-Dec-03 23:30N 45°39' W 122°44'0 0.5
2017-Dec-03 23:01N 45°39' W 122°45'4 4.9
2017-Dec-03 22:15N 45°35' W 122°46'2 7.3
2017-Dec-03 22:00N 45°34' W 122°44'0 0.1
2017-Dec-03 21:30N 45°34' W 122°44'0 0.0
2017-Dec-03 21:00N 45°34' W 122°44'0 0.0
2017-Dec-03 20:30N 45°34' W 122°44'0 0.0
2017-Dec-03 20:00N 45°34' W 122°44'0 0.0
2017-Dec-03 19:30N 45°34' W 122°44'0 0.0
2017-Dec-03 19:00N 45°34' W 122°44'0 0.0
2017-Dec-03 18:30N 45°34' W 122°44'0 0.0
2017-Dec-03 18:00N 45°34' W 122°44'0 0.0
2017-Dec-03 17:31N 45°34' W 122°44'0 0.0
2017-Dec-03 17:00N 45°34' W 122°44'0 0.0
2017-Dec-03 16:31N 45°34' W 122°44'0 0.0
2017-Dec-03 16:00N 45°34' W 122°44'0 0.0
2017-Dec-03 15:31N 45°34' W 122°44'1 2.7
2017-Dec-03 15:01N 45°35' W 122°45'4 7.1
2017-Dec-03 14:30N 45°38' W 122°47'3 6.5
2017-Dec-03 14:01N 45°38' W 122°43'1 1.6
2017-Dec-03 13:31N 45°38' W 122°42'0 0.8
2017-Dec-03 13:00N 45°38' W 122°42'2 3.6
2017-Dec-03 12:31N 45°39' W 122°45'0 0.0
2017-Dec-03 12:01N 45°39' W 122°45'0 0.0
2017-Dec-03 11:30N 45°39' W 122°45'0 0.0
2017-Dec-03 11:00N 45°39' W 122°45'0 0.0
2017-Dec-03 10:30N 45°39' W 122°45'0 0.0
2017-Dec-03 10:01N 45°39' W 122°45'1 1.9
2017-Dec-03 09:30N 45°38' W 122°43'1 1.8
2017-Dec-03 09:01N 45°38' W 122°42'1 1.4
2017-Dec-03 08:31N 45°38' W 122°43'1 2.3
2017-Dec-03 08:00N 45°39' W 122°45'0 0.0
2017-Dec-03 07:30N 45°39' W 122°45'  
Track history (hours):
 
Tides and Currents Weather Stations Pressure Air Temp Water Temp Dewpoint Dewpoint Depression Visibility Wind Speed Wind Dir Waves Ship Positions

Clearwater

Owner: Shaver Transportation Company, Portland, OR. More information available from US FCC via Universal Licensing System and Coast Guard Vessel Documentation Center.

Last reported at 2017-Dec-13 07:20 UTC. Time now 2017-Dec-17 02:34 UTC.
Position N 45°37' W 122°01'.

Length 29 m; draft 3.2 m.

Type: Tug. MMSI: 367513140.

Date/timePositionNaut miles runAvg speedWind from/ knotsBaromVisibWave heightAir tempDewpointWater temp
2017-Dec-13 07:20N 45°37' W 122°01'1 3.9
2017-Dec-13 06:57N 45°36' W 122°03'3 6.8
2017-Dec-13 06:27N 45°35' W 122°07'3 6.4
2017-Dec-13 06:01N 45°34' W 122°11'3 6.1
2017-Dec-13 05:30N 45°33' W 122°15'3 6.1
2017-Dec-13 05:00N 45°33' W 122°19'3 6.1
2017-Dec-13 04:30N 45°35' W 122°23'3 6.2
2017-Dec-13 04:00N 45°34' W 122°28'4 7.0
2017-Dec-13 03:30N 45°36' W 122°32'4 7.1
2017-Dec-13 03:00N 45°36' W 122°37'4 7.4
2017-Dec-13 02:30N 45°38' W 122°42'2 2.6
2017-Dec-13 01:39N 45°39' W 122°45'2 8.8
2017-Dec-13 01:29N 45°40' W 122°46'4 8.4
2017-Dec-13 01:00N 45°44' W 122°46'4 8.4
2017-Dec-13 00:31N 45°48' W 122°47'4 8.0
2017-Dec-13 00:00N 45°52' W 122°47'4 7.4
2017-Dec-12 23:30N 45°56' W 122°48'1 1.2
2017-Dec-12 23:01N 45°55' W 122°48'5 9.4
2017-Dec-12 22:30N 45°50' W 122°47'4 8.8
2017-Dec-12 22:01N 45°46' W 122°46'4 8.9
2017-Dec-12 21:31N 45°42' W 122°46'3 6.4
2017-Dec-12 21:01N 45°39' W 122°45'2 3.4
2017-Dec-12 20:30N 45°38' W 122°47'4 7.1
2017-Dec-12 20:01N 45°35' W 122°45'2 3.1
2017-Dec-12 19:31N 45°34' W 122°44'0 0.0
2017-Dec-12 19:01N 45°34' W 122°44'0 0.0
2017-Dec-12 18:31N 45°34' W 122°44'0 0.0
2017-Dec-12 18:01N 45°34' W 122°44'0 0.0
2017-Dec-12 17:31N 45°34' W 122°44'0 0.0
2017-Dec-12 17:01N 45°34' W 122°44'0 0.1
2017-Dec-12 16:30N 45°34' W 122°44'0 0.0
2017-Dec-12 16:01N 45°34' W 122°44'0 0.1
2017-Dec-12 15:31N 45°34' W 122°44'2 4.5
2017-Dec-12 15:00N 45°35' W 122°46'3 6.7
2017-Dec-12 14:31N 45°39' W 122°47'1 2.0
2017-Dec-12 14:01N 45°39' W 122°45'0 0.0
2017-Dec-12 13:31N 45°39' W 122°45'0 0.0
2017-Dec-12 13:01N 45°39' W 122°45'0 0.0
2017-Dec-12 12:31N 45°39' W 122°45'0 0.0
2017-Dec-12 12:01N 45°39' W 122°45'2 3.2
2017-Dec-12 11:30N 45°38' W 122°47'5 9.0
2017-Dec-12 11:01N 45°34' W 122°44'2 5.0
2017-Dec-12 10:30N 45°36' W 122°47'3 6.8
2017-Dec-12 10:00N 45°39' W 122°46'1 1.2
2017-Dec-12 09:30N 45°39' W 122°45'0 0.0
2017-Dec-12 09:00N 45°39' W 122°45'0 0.0
2017-Dec-12 08:30N 45°39' W 122°45'0 0.0
2017-Dec-12 08:00N 45°39' W 122°45'0 0.0
2017-Dec-12 07:30N 45°39' W 122°45'0 0.0
2017-Dec-12 07:00N 45°39' W 122°45'0 0.0
2017-Dec-12 06:30N 45°39' W 122°45'0 0.0
2017-Dec-12 05:57N 45°39' W 122°45'0 0.0
2017-Dec-12 05:30N 45°39' W 122°45'0 0.0
2017-Dec-12 05:00N 45°39' W 122°45'1 2.1
2017-Dec-12 04:30N 45°38' W 122°44'1 2.9
2017-Dec-12 04:00N 45°38' W 122°42'0 0.0
2017-Dec-12 03:30N 45°38' W 122°42'0 0.0
2017-Dec-12 03:00N 45°38' W 122°42'1 2.3
2017-Dec-12 02:31N 45°38' W 122°43'0 0.9
2017-Dec-12 02:00N 45°38' W 122°44'1 1.9
2017-Dec-12 01:29N 45°39' W 122°45'0 0.0
2017-Dec-12 01:01N 45°39' W 122°45'0 0.0
2017-Dec-12 00:30N 45°39' W 122°45'0 0.0
2017-Dec-12 00:00N 45°39' W 122°45'0 0.0
2017-Dec-11 23:31N 45°39' W 122°45'0 0.0
2017-Dec-11 23:01N 45°39' W 122°45'0 0.0
2017-Dec-11 22:31N 45°39' W 122°45'0 0.0
2017-Dec-11 22:01N 45°39' W 122°45'0 0.0
2017-Dec-11 21:30N 45°39' W 122°45'0 0.0
2017-Dec-11 21:01N 45°39' W 122°45'0 0.0
2017-Dec-11 20:30N 45°39' W 122°45'0 0.0
2017-Dec-11 20:00N 45°39' W 122°45'0 0.0
2017-Dec-11 19:31N 45°39' W 122°45'0 0.0
2017-Dec-11 19:01N 45°39' W 122°45'0 0.5
2017-Dec-11 18:30N 45°39' W 122°45'0 0.0
2017-Dec-11 18:01N 45°39' W 122°45'0 0.0
2017-Dec-11 17:30N 45°39' W 122°45'0 0.0
2017-Dec-11 17:00N 45°39' W 122°45'2 3.5
2017-Dec-11 16:30N 45°38' W 122°42'0 0.0
2017-Dec-11 16:01N 45°38' W 122°42'0 0.0
2017-Dec-11 15:30N 45°38' W 122°42'0 0.1
2017-Dec-11 15:01N 45°38' W 122°42'0 0.4
2017-Dec-11 14:31N 45°38' W 122°43'1 1.9
2017-Dec-11 14:00N 45°38' W 122°44'1 2.4
2017-Dec-11 13:30N 45°38' W 122°42'2 4.0
2017-Dec-11 13:00N 45°39' W 122°45'1 1.4
2017-Dec-11 12:30N 45°39' W 122°46'4 7.2
2017-Dec-11 12:00N 45°35' W 122°46'3 5.2
2017-Dec-11 11:30N 45°34' W 122°44'0 0.7
2017-Dec-11 11:00N 45°34' W 122°44'4 7.5
2017-Dec-11 10:30N 45°37' W 122°47'3 6.3
2017-Dec-11 10:01N 45°40' W 122°46'0 0.1
2017-Dec-11 09:30N 45°40' W 122°46'0 0.0
2017-Dec-11 09:01N 45°40' W 122°46'0 0.0
2017-Dec-11 08:28N 45°40' W 122°46'0 0.0
2017-Dec-11 08:00N 45°40' W 122°46'0 0.0
2017-Dec-11 07:31N 45°40' W 122°46'0 0.0
2017-Dec-11 07:00N 45°40' W 122°46'0 0.0
2017-Dec-11 06:30N 45°40' W 122°46'0 0.0
2017-Dec-11 06:00N 45°40' W 122°46'2 3.1
2017-Dec-11 05:31N 45°39' W 122°45'0 0.3
2017-Dec-11 05:00N 45°39' W 122°45'3 5.5
2017-Dec-11 04:31N 45°38' W 122°41'3 6.7
2017-Dec-11 04:01N 45°36' W 122°37'3 7.0
2017-Dec-11 03:30N 45°35' W 122°32'4 7.1
2017-Dec-11 03:01N 45°34' W 122°27'3 6.9
2017-Dec-11 02:30N 45°34' W 122°22'3 6.7
2017-Dec-11 02:01N 45°33' W 122°18'3 6.9
2017-Dec-11 01:31N 45°33' W 122°13'3 6.6
2017-Dec-11 01:01N 45°35' W 122°09'3 6.4
2017-Dec-11 00:28N 45°36' W 122°04'  
2017-Dec-04 10:30N 45°39' W 122°45'0 0.0
2017-Dec-04 10:00N 45°39' W 122°45'0 0.0
2017-Dec-04 09:31N 45°39' W 122°45'0 0.0
2017-Dec-04 09:00N 45°39' W 122°45'0 0.0
2017-Dec-04 08:30N 45°39' W 122°45'0 0.0
2017-Dec-04 08:00N 45°39' W 122°45'0 0.0
2017-Dec-04 07:30N 45°39' W 122°45'0 0.0
2017-Dec-04 07:00N 45°39' W 122°45'0 0.0
2017-Dec-04 06:30N 45°39' W 122°45'0 0.0
2017-Dec-04 06:00N 45°39' W 122°45'0 0.0
2017-Dec-04 05:30N 45°39' W 122°45'0 0.0
2017-Dec-04 05:00N 45°39' W 122°45'1 2.0
2017-Dec-04 04:30N 45°38' W 122°43'1 1.6
2017-Dec-04 04:01N 45°38' W 122°42'3 5.2
2017-Dec-04 03:30N 45°39' W 122°46'4 8.2
2017-Dec-04 03:01N 45°35' W 122°46'4 7.8
2017-Dec-04 02:30N 45°33' W 122°42'1 1.8
2017-Dec-04 02:00N 45°32' W 122°41'3 5.0
2017-Dec-04 01:30N 45°34' W 122°43'3 5.8
2017-Dec-04 01:01N 45°36' W 122°46'3 6.4
2017-Dec-04 00:31N 45°39' W 122°46'1 2.0
2017-Dec-04 00:00N 45°39' W 122°45'0 0.5
2017-Dec-03 23:30N 45°39' W 122°44'0 0.5
2017-Dec-03 23:01N 45°39' W 122°45'4 4.9
2017-Dec-03 22:15N 45°35' W 122°46'2 7.3
2017-Dec-03 22:00N 45°34' W 122°44'0 0.1
2017-Dec-03 21:30N 45°34' W 122°44'0 0.0
2017-Dec-03 21:00N 45°34' W 122°44'0 0.0
2017-Dec-03 20:30N 45°34' W 122°44'0 0.0
2017-Dec-03 20:00N 45°34' W 122°44'0 0.0
2017-Dec-03 19:30N 45°34' W 122°44'0 0.0
2017-Dec-03 19:00N 45°34' W 122°44'0 0.0
2017-Dec-03 18:30N 45°34' W 122°44'0 0.0
2017-Dec-03 18:00N 45°34' W 122°44'0 0.0
2017-Dec-03 17:31N 45°34' W 122°44'0 0.0
2017-Dec-03 17:00N 45°34' W 122°44'0 0.0
2017-Dec-03 16:31N 45°34' W 122°44'0 0.0
2017-Dec-03 16:00N 45°34' W 122°44'0 0.0
2017-Dec-03 15:31N 45°34' W 122°44'1 2.7
2017-Dec-03 15:01N 45°35' W 122°45'4 7.1
2017-Dec-03 14:30N 45°38' W 122°47'3 6.5
2017-Dec-03 14:01N 45°38' W 122°43'1 1.6
2017-Dec-03 13:31N 45°38' W 122°42'0 0.8
2017-Dec-03 13:00N 45°38' W 122°42'2 3.6
2017-Dec-03 12:31N 45°39' W 122°45'0 0.0
2017-Dec-03 12:01N 45°39' W 122°45'0 0.0
2017-Dec-03 11:30N 45°39' W 122°45'0 0.0
2017-Dec-03 11:00N 45°39' W 122°45'0 0.0
2017-Dec-03 10:30N 45°39' W 122°45'0 0.0
2017-Dec-03 10:01N 45°39' W 122°45'1 1.9
2017-Dec-03 09:30N 45°38' W 122°43'1 1.8
2017-Dec-03 09:01N 45°38' W 122°42'1 1.4
2017-Dec-03 08:31N 45°38' W 122°43'1 2.3
2017-Dec-03 08:00N 45°39' W 122°45'0 0.0
2017-Dec-03 07:30N 45°39' W 122°45'  

Dump ship's entire track history